createdAt,value
2023-01-31T00:01:51.472Z,41.83
2023-01-31T00:04:18.355Z,41.28
2023-01-31T00:06:51.183Z,37.35
2023-01-31T00:09:18.367Z,35.00
2023-01-31T00:11:45.277Z,35.22
2023-01-31T00:14:17.897Z,32.58
2023-01-31T00:16:44.768Z,32.20
2023-01-31T00:19:11.655Z,30.40
2023-01-31T00:21:41.766Z,29.15
2023-01-31T00:24:08.628Z,29.65
2023-01-31T00:26:36.159Z,27.20
2023-01-31T00:29:04.377Z,27.95
2023-01-31T00:31:33.668Z,26.35
2023-01-31T00:34:00.967Z,24.17
2023-01-31T00:36:30.238Z,23.70
2023-01-31T00:38:59.082Z,22.50
2023-01-31T00:41:27.141Z,22.57
2023-01-31T00:43:53.979Z,23.15
2023-01-31T00:46:21.009Z,22.63
2023-01-31T00:48:48.326Z,22.50
2023-01-31T00:51:15.303Z,21.25
2023-01-31T00:53:42.116Z,20.10
2023-01-31T00:56:11.661Z,19.88
2023-01-31T00:58:42.095Z,20.65
2023-01-31T01:01:19.124Z,18.70
2023-01-31T01:03:46.713Z,19.10
2023-01-31T01:06:14.006Z,19.63
2023-01-31T01:08:41.455Z,18.33
2023-01-31T01:11:13.892Z,16.45
2023-01-31T01:13:41.090Z,18.40
2023-01-31T01:16:10.423Z,18.83
2023-01-31T01:18:37.773Z,18.00
2023-01-31T01:21:13.080Z,17.25
2023-01-31T01:23:41.228Z,17.80
2023-01-31T01:26:20.547Z,16.35
2023-01-31T01:28:48.544Z,15.98
2023-01-31T01:31:16.860Z,16.25
2023-01-31T01:33:44.690Z,15.20
2023-01-31T01:36:22.271Z,14.55
2023-01-31T01:38:49.346Z,15.88
2023-01-31T01:41:16.393Z,13.75
2023-01-31T01:43:52.760Z,14.70
2023-01-31T01:46:33.649Z,15.07
2023-01-31T01:49:17.471Z,14.02
2023-01-31T01:51:45.316Z,13.35
2023-01-31T01:54:19.448Z,14.57
2023-01-31T01:56:49.699Z,13.48
2023-01-31T01:59:19.513Z,13.10
2023-01-31T02:01:48.094Z,13.13
2023-01-31T02:04:19.532Z,13.10
2023-01-31T02:06:46.771Z,12.88
2023-01-31T02:09:30.272Z,12.63
2023-01-31T02:14:26.158Z,12.30
2023-01-31T02:16:53.064Z,11.88
2023-01-31T02:19:26.663Z,12.00
2023-01-31T02:21:59.266Z,11.05
2023-01-31T02:24:34.803Z,11.57
2023-01-31T02:27:31.400Z,11.88
2023-01-31T02:30:28.966Z,11.38
2023-01-31T02:32:58.754Z,10.60
2023-01-31T02:38:34.640Z,11.48
2023-01-31T02:41:22.688Z,11.05
2023-01-31T02:47:22.305Z,10.63
2023-01-31T02:49:54.526Z,10.10
2023-01-31T02:53:00.078Z,10.90
2023-01-31T02:55:57.568Z,10.30
2023-01-31T02:58:27.835Z,11.38
2023-01-31T03:00:58.400Z,9.70
2023-01-31T03:03:28.332Z,9.95
2023-01-31T03:06:23.384Z,9.82
2023-01-31T03:09:22.354Z,10.05
2023-01-31T03:12:01.599Z,9.80
2023-01-31T03:14:31.681Z,10.02
2023-01-31T03:17:21.345Z,8.88
2023-01-31T03:22:24.221Z,8.32
2023-01-31T03:24:52.396Z,8.35
2023-01-31T03:27:20.926Z,8.23
2023-01-31T03:29:47.964Z,8.30
2023-01-31T03:32:24.720Z,8.98
2023-01-31T03:34:52.442Z,8.55
2023-01-31T03:37:34.803Z,7.82
2023-01-31T03:40:21.621Z,8.20
2023-01-31T03:43:05.795Z,8.05
2023-01-31T03:46:00.307Z,9.60
2023-01-31T03:48:30.500Z,7.72
2023-01-31T03:50:59.708Z,8.35
2023-01-31T03:53:46.643Z,7.57
2023-01-31T03:56:33.189Z,6.97
2023-01-31T03:59:13.061Z,7.00
2023-01-31T04:01:48.655Z,7.80
2023-01-31T04:04:20.445Z,6.97
2023-01-31T04:09:15.212Z,7.38
2023-01-31T04:11:42.863Z,7.65
2023-01-31T04:14:10.329Z,6.50
2023-01-31T04:16:37.199Z,7.40
2023-01-31T04:19:04.065Z,7.93
2023-01-31T04:21:30.845Z,7.47
2023-01-31T04:23:57.623Z,7.07
2023-01-31T04:26:24.544Z,6.53
2023-01-31T04:28:51.578Z,6.82
2023-01-31T04:31:18.522Z,7.20
2023-01-31T04:33:45.450Z,6.10
2023-01-31T04:36:12.456Z,5.88
2023-01-31T04:38:39.353Z,7.72
2023-01-31T04:41:06.239Z,5.78
2023-01-31T04:43:33.162Z,6.13
2023-01-31T04:46:00.075Z,8.25
2023-01-31T04:48:28.961Z,6.10
2023-01-31T04:50:55.981Z,7.13
2023-01-31T04:53:22.794Z,6.60
2023-01-31T04:55:49.592Z,5.78
2023-01-31T04:58:16.499Z,7.03
2023-01-31T05:00:45.030Z,6.03
2023-01-31T05:03:12.540Z,6.20
2023-01-31T05:05:40.066Z,5.82
2023-01-31T05:08:07.152Z,5.30
2023-01-31T05:10:34.998Z,5.97
2023-01-31T05:13:02.097Z,5.07
2023-01-31T05:15:28.986Z,5.13
2023-01-31T05:18:04.923Z,4.78
2023-01-31T05:20:36.525Z,4.25
2023-01-31T05:23:03.844Z,5.10
2023-01-31T05:25:31.647Z,5.10
2023-01-31T05:27:59.000Z,4.13
2023-01-31T05:30:26.167Z,5.15
2023-01-31T05:32:53.277Z,5.72
2023-01-31T05:35:20.418Z,5.50
2023-01-31T05:37:47.553Z,5.60
2023-01-31T05:40:16.828Z,5.05
2023-01-31T05:42:43.844Z,4.68
2023-01-31T05:45:11.968Z,5.78
2023-01-31T05:47:38.923Z,4.20
2023-01-31T05:50:06.640Z,4.90
2023-01-31T05:52:33.500Z,4.60
2023-01-31T05:55:00.460Z,4.25
2023-01-31T05:57:27.360Z,5.03
2023-01-31T05:59:54.261Z,4.25
2023-01-31T06:02:21.144Z,3.53
2023-01-31T06:04:48.149Z,4.80
2023-01-31T06:07:15.181Z,4.78
2023-01-31T06:09:42.043Z,4.40
2023-01-31T06:12:15.251Z,3.83
2023-01-31T06:14:42.306Z,4.55
2023-01-31T06:17:09.651Z,5.18
2023-01-31T06:19:36.513Z,4.50
2023-01-31T06:22:03.365Z,4.65
2023-01-31T06:24:30.568Z,5.15
2023-01-31T06:26:57.446Z,3.35
2023-01-31T06:29:24.310Z,4.00
2023-01-31T06:31:51.227Z,4.80
2023-01-31T06:34:18.270Z,5.50
2023-01-31T06:36:45.095Z,4.05
2023-01-31T06:39:13.436Z,4.30
2023-01-31T06:41:40.659Z,3.70
2023-01-31T06:44:07.713Z,5.82
2023-01-31T06:46:34.589Z,4.07
2023-01-31T06:49:01.585Z,3.70
2023-01-31T06:51:28.388Z,3.78
2023-01-31T06:53:56.663Z,3.45
2023-01-31T06:56:23.701Z,11.40
2023-01-31T06:58:50.600Z,16.17
2023-01-31T07:01:17.797Z,16.73
2023-01-31T07:03:45.768Z,13.30
2023-01-31T07:06:13.804Z,10.90
2023-01-31T07:08:40.725Z,9.35
2023-01-31T07:11:07.578Z,8.93
2023-01-31T07:13:34.471Z,7.88
2023-01-31T07:16:01.362Z,8.93
2023-01-31T07:18:28.265Z,7.53
2023-01-31T07:20:55.386Z,7.68
2023-01-31T07:23:22.257Z,8.73
2023-01-31T07:25:49.081Z,6.55
2023-01-31T07:28:15.890Z,5.47
2023-01-31T07:30:43.955Z,7.45
2023-01-31T07:33:11.811Z,5.65
2023-01-31T07:35:38.747Z,15.40
2023-01-31T07:38:06.040Z,20.58
2023-01-31T07:40:33.281Z,21.30
2023-01-31T07:43:00.718Z,14.73
2023-01-31T07:45:27.712Z,13.15
2023-01-31T07:47:58.645Z,12.20
2023-01-31T07:50:27.268Z,11.52
2023-01-31T07:52:54.302Z,11.38
2023-01-31T07:55:21.713Z,9.30
2023-01-31T07:57:48.715Z,8.90
2023-01-31T08:00:41.699Z,8.75
2023-01-31T08:03:34.393Z,9.15
2023-01-31T08:06:12.188Z,7.30
2023-01-31T08:08:40.201Z,15.52
2023-01-31T08:11:07.122Z,24.75
2023-01-31T08:13:35.500Z,22.40
2023-01-31T08:16:06.678Z,18.10
2023-01-31T08:18:33.741Z,15.68
2023-01-31T08:21:00.606Z,13.93
2023-01-31T08:23:28.383Z,12.48
2023-01-31T08:26:06.375Z,10.73
2023-01-31T08:28:33.644Z,15.35
2023-01-31T08:31:08.656Z,20.50
2023-01-31T08:33:38.211Z,16.33
2023-01-31T08:36:14.283Z,14.73
2023-01-31T08:38:41.247Z,15.05
2023-01-31T08:41:08.549Z,11.45
2023-01-31T08:43:52.860Z,11.70
2023-01-31T08:46:30.929Z,10.50
2023-01-31T08:48:58.645Z,9.95
2023-01-31T08:51:25.793Z,8.95
2023-01-31T08:53:52.797Z,9.93
2023-01-31T08:56:21.694Z,8.48
2023-01-31T08:58:48.805Z,8.10
2023-01-31T09:01:18.109Z,7.40
2023-01-31T09:03:46.122Z,8.05
2023-01-31T09:06:19.258Z,8.50
2023-01-31T09:08:46.522Z,7.00
2023-01-31T09:11:19.924Z,6.72
2023-01-31T09:13:51.662Z,6.47
2023-01-31T09:16:19.610Z,6.25
2023-01-31T09:18:46.749Z,8.15
2023-01-31T09:21:19.035Z,6.78
2023-01-31T09:23:46.789Z,8.20
2023-01-31T09:26:14.923Z,5.43
2023-01-31T09:28:43.451Z,5.85
2023-01-31T09:31:13.433Z,5.53
2023-01-31T09:33:41.124Z,5.93
2023-01-31T09:36:14.147Z,5.65
2023-01-31T09:38:41.277Z,4.93
2023-01-31T09:41:26.741Z,5.38
2023-01-31T09:43:58.234Z,5.03
2023-01-31T09:46:28.482Z,4.13
2023-01-31T09:48:56.569Z,6.40
2023-01-31T09:51:24.635Z,6.03
2023-01-31T09:53:51.657Z,4.82
2023-01-31T09:56:43.433Z,5.72
2023-01-31T09:59:25.743Z,3.92
2023-01-31T10:02:13.632Z,4.75
2023-01-31T10:05:03.492Z,5.63
2023-01-31T10:07:34.694Z,5.05
2023-01-31T10:10:19.602Z,4.65
2023-01-31T10:12:50.118Z,5.57
2023-01-31T10:15:53.246Z,10.65
2023-01-31T10:18:26.023Z,10.95
2023-01-31T10:20:57.319Z,9.23
2023-01-31T10:23:40.598Z,8.73
2023-01-31T10:29:00.507Z,5.95
2023-01-31T10:31:38.878Z,5.50
2023-01-31T10:34:14.828Z,5.97
2023-01-31T10:37:15.648Z,6.15
2023-01-31T10:39:49.850Z,5.03
2023-01-31T10:42:25.765Z,5.70
2023-01-31T10:45:12.400Z,6.20
2023-01-31T10:48:05.587Z,4.15
2023-01-31T10:50:40.481Z,4.30
2023-01-31T10:53:52.236Z,5.30
2023-01-31T10:56:38.278Z,4.90
2023-01-31T10:59:19.563Z,7.57
2023-01-31T11:01:46.444Z,12.23
2023-01-31T11:04:29.894Z,8.70
2023-01-31T11:06:58.547Z,9.98
2023-01-31T11:09:32.080Z,6.18
2023-01-31T11:12:05.129Z,7.97
2023-01-31T11:14:32.029Z,8.68
2023-01-31T11:17:37.431Z,5.93
2023-01-31T11:20:06.713Z,4.22
2023-01-31T11:22:36.451Z,5.50
2023-01-31T11:27:44.201Z,5.00
2023-01-31T11:30:30.458Z,3.72
2023-01-31T11:32:57.667Z,4.53
2023-01-31T11:35:28.138Z,6.50
2023-01-31T11:38:01.528Z,4.28
2023-01-31T11:40:36.851Z,4.75
2023-01-31T11:43:27.265Z,3.90
2023-01-31T11:46:00.059Z,5.43
2023-01-31T11:48:45.133Z,3.13
2023-01-31T11:51:27.287Z,4.43
2023-01-31T11:53:54.219Z,5.28
2023-01-31T11:56:24.402Z,6.32
2023-01-31T11:58:55.497Z,5.22
2023-01-31T12:01:24.616Z,6.70
2023-01-31T12:04:04.145Z,7.13
2023-01-31T12:06:32.905Z,4.43
2023-01-31T12:09:01.608Z,4.28
2023-01-31T12:11:33.751Z,4.73
2023-01-31T12:14:06.465Z,4.20
2023-01-31T12:16:34.762Z,3.95
2023-01-31T12:19:07.423Z,5.93
2023-01-31T12:21:59.714Z,5.30
2023-01-31T12:24:55.854Z,5.63
2023-01-31T12:27:40.827Z,4.38
2023-01-31T12:30:35.065Z,4.75
2023-01-31T12:33:28.124Z,3.67
2023-01-31T12:36:01.213Z,3.03
2023-01-31T12:41:42.197Z,5.22
2023-01-31T12:44:47.794Z,3.25
2023-01-31T12:47:17.638Z,3.42
2023-01-31T12:50:05.685Z,3.75
2023-01-31T12:55:43.967Z,2.85
2023-01-31T12:58:27.921Z,3.70
2023-01-31T13:01:01.033Z,5.45
2023-01-31T13:03:39.061Z,4.78
2023-01-31T13:06:22.490Z,3.88
2023-01-31T13:09:07.374Z,3.80
2023-01-31T13:11:57.725Z,4.20
2023-01-31T13:14:27.893Z,7.07
2023-01-31T13:16:57.260Z,3.72
2023-01-31T13:19:43.645Z,7.70
2023-01-31T13:22:40.742Z,6.28
2023-01-31T13:25:28.209Z,14.88
2023-01-31T13:28:00.731Z,16.95
2023-01-31T13:30:30.579Z,16.23
2023-01-31T13:32:58.123Z,20.50
2023-01-31T13:35:35.606Z,20.02
2023-01-31T13:38:08.024Z,18.20
2023-01-31T13:40:42.392Z,10.40
2023-01-31T13:43:14.431Z,15.38
2023-01-31T13:45:55.136Z,9.88
2023-01-31T13:48:37.523Z,15.35
2023-01-31T13:53:55.456Z,10.95
2023-01-31T13:56:29.624Z,12.65
2023-01-31T13:58:57.408Z,9.15
2023-01-31T14:01:26.539Z,9.27
2023-01-31T14:04:14.818Z,8.10
2023-01-31T14:06:56.456Z,10.57
2023-01-31T14:09:56.648Z,6.25
2023-01-31T14:12:23.424Z,6.20
2023-01-31T14:14:55.402Z,4.82
2023-01-31T14:17:22.239Z,7.45
2023-01-31T14:19:49.582Z,7.90
2023-01-31T14:22:24.358Z,6.93
2023-01-31T14:24:53.358Z,4.68
2023-01-31T14:27:23.107Z,8.32
2023-01-31T14:30:15.402Z,5.38
2023-01-31T14:33:05.333Z,5.53
2023-01-31T14:35:46.953Z,3.97
2023-01-31T14:38:41.663Z,4.55
2023-01-31T14:41:33.615Z,5.07
2023-01-31T14:44:37.057Z,4.43
2023-01-31T14:47:25.751Z,4.00
2023-01-31T14:50:11.642Z,5.13
2023-01-31T14:53:07.055Z,6.75
2023-01-31T14:58:34.245Z,5.50
2023-01-31T15:01:04.246Z,6.55
2023-01-31T15:06:41.053Z,4.53
2023-01-31T15:09:24.508Z,4.07
2023-01-31T15:11:55.378Z,5.80
2023-01-31T15:14:44.980Z,3.17
2023-01-31T15:23:05.087Z,3.38
2023-01-31T15:25:44.299Z,4.88
2023-01-31T15:28:15.849Z,3.65
2023-01-31T15:30:43.108Z,4.25
2023-01-31T15:35:59.303Z,2.78
2023-01-31T15:38:28.773Z,2.65
2023-01-31T15:41:32.976Z,2.75
2023-01-31T15:44:12.093Z,2.67
2023-01-31T15:46:38.901Z,3.15
2023-01-31T15:49:38.069Z,3.00
2023-01-31T15:52:13.409Z,2.65
2023-01-31T15:54:58.001Z,2.85
2023-01-31T15:57:32.191Z,3.15
2023-01-31T15:59:59.189Z,3.42
2023-01-31T16:02:28.739Z,1.77
2023-01-31T16:04:56.021Z,2.95
2023-01-31T16:07:28.536Z,2.10
2023-01-31T16:09:57.863Z,2.00
2023-01-31T16:12:26.154Z,2.80
2023-01-31T16:14:59.272Z,3.13
2023-01-31T16:17:28.296Z,3.15
2023-01-31T16:19:55.907Z,2.42
2023-01-31T16:22:29.047Z,2.22
2023-01-31T16:25:01.708Z,3.05
2023-01-31T16:27:33.285Z,3.92
2023-01-31T16:30:00.702Z,5.72
2023-01-31T16:32:37.398Z,9.88
2023-01-31T16:35:17.831Z,12.88
2023-01-31T16:37:44.986Z,12.32
2023-01-31T16:40:22.103Z,9.80
2023-01-31T16:45:34.099Z,8.55
2023-01-31T16:48:34.669Z,6.25
2023-01-31T16:51:30.243Z,6.70
2023-01-31T16:54:17.187Z,5.72
2023-01-31T16:56:45.848Z,7.45
2023-01-31T16:59:34.645Z,5.07
2023-01-31T17:02:21.655Z,4.65
2023-01-31T17:04:50.445Z,4.60
2023-01-31T17:12:38.561Z,4.05
2023-01-31T17:15:19.932Z,4.22
2023-01-31T17:17:47.979Z,2.92
2023-01-31T17:20:18.376Z,3.65
2023-01-31T17:22:50.434Z,3.10
2023-01-31T17:25:26.937Z,2.50
2023-01-31T17:27:53.832Z,3.17
2023-01-31T17:30:22.800Z,2.97
2023-01-31T17:32:49.923Z,2.90
2023-01-31T17:35:30.126Z,2.45
2023-01-31T17:37:57.103Z,3.00
2023-01-31T17:40:24.389Z,2.40
2023-01-31T17:42:53.694Z,2.53
2023-01-31T17:45:20.838Z,2.35
2023-01-31T17:47:47.799Z,3.20
2023-01-31T17:50:15.905Z,14.18
2023-01-31T17:52:42.948Z,15.48
2023-01-31T17:55:10.127Z,12.52
2023-01-31T17:57:37.297Z,11.45
2023-01-31T18:00:06.589Z,9.88
2023-01-31T18:02:33.847Z,9.13
2023-01-31T18:05:00.712Z,8.50
2023-01-31T18:07:27.585Z,8.77
2023-01-31T18:09:54.684Z,6.72
2023-01-31T18:12:21.555Z,7.28
2023-01-31T18:14:48.460Z,7.90
2023-01-31T18:17:15.268Z,6.50
2023-01-31T18:19:42.126Z,5.55
2023-01-31T18:22:08.937Z,5.00
2023-01-31T18:24:35.796Z,12.20
2023-01-31T18:27:02.754Z,15.55
2023-01-31T18:29:29.970Z,15.27
2023-01-31T18:31:57.977Z,15.02
2023-01-31T18:34:25.585Z,13.93
2023-01-31T18:36:52.413Z,14.95
2023-01-31T18:39:19.265Z,14.38
2023-01-31T18:41:46.094Z,14.05
2023-01-31T18:44:12.987Z,17.38
2023-01-31T18:46:39.878Z,15.85
2023-01-31T18:49:07.065Z,13.98
2023-01-31T18:51:34.027Z,12.27
2023-01-31T18:54:03.533Z,12.52
2023-01-31T18:56:30.652Z,11.55
2023-01-31T18:58:58.723Z,10.88
2023-01-31T19:01:28.795Z,12.27
2023-01-31T19:03:58.257Z,16.75
2023-01-31T19:06:31.042Z,19.67
2023-01-31T19:08:58.495Z,21.63
2023-01-31T19:11:27.115Z,19.05
2023-01-31T19:13:54.123Z,17.30
2023-01-31T19:16:26.354Z,15.35
2023-01-31T19:18:54.630Z,15.13
2023-01-31T19:21:26.886Z,13.85
2023-01-31T19:23:56.413Z,12.75
2023-01-31T19:26:24.814Z,12.13
2023-01-31T19:28:52.051Z,11.65
2023-01-31T19:31:21.537Z,10.13
2023-01-31T19:34:00.167Z,9.82
2023-01-31T19:36:29.759Z,8.93
2023-01-31T19:41:25.194Z,8.15
2023-01-31T19:43:53.358Z,16.27
2023-01-31T19:46:21.251Z,26.17
2023-01-31T19:48:48.173Z,27.50
2023-01-31T19:51:17.752Z,24.88
2023-01-31T19:53:45.416Z,21.75
2023-01-31T19:56:12.794Z,19.80
2023-01-31T19:58:39.812Z,17.08
2023-01-31T20:01:16.874Z,15.55
2023-01-31T20:03:44.799Z,14.63
2023-01-31T20:06:17.452Z,12.85
2023-01-31T20:08:48.308Z,12.32
2023-01-31T20:11:15.185Z,12.52
2023-01-31T20:13:42.183Z,10.30
2023-01-31T20:16:11.331Z,20.90
2023-01-31T20:18:39.915Z,24.23
2023-01-31T20:21:07.559Z,24.92
2023-01-31T20:23:34.772Z,22.27
2023-01-31T20:26:03.174Z,19.15
2023-01-31T20:28:30.249Z,18.20
2023-01-31T20:31:06.146Z,16.17
2023-01-31T20:33:33.435Z,34.75
2023-01-31T20:36:00.504Z,33.30
2023-01-31T20:38:27.530Z,30.20
2023-01-31T20:40:54.882Z,27.15
2023-01-31T20:43:24.251Z,26.30
2023-01-31T20:45:51.685Z,23.17
2023-01-31T20:48:19.177Z,20.63
2023-01-31T20:50:55.285Z,20.02
2023-01-31T20:53:22.618Z,17.10
2023-01-31T20:56:10.014Z,15.23
2023-01-31T20:58:39.120Z,14.90
2023-01-31T21:01:07.423Z,14.57
2023-01-31T21:03:35.111Z,13.13
2023-01-31T21:06:03.323Z,13.73
2023-01-31T21:08:31.943Z,12.90
2023-01-31T21:10:59.116Z,12.45
2023-01-31T21:13:29.083Z,11.23
2023-01-31T21:16:02.042Z,11.45
2023-01-31T21:18:36.726Z,10.15
2023-01-31T21:21:09.309Z,10.70
2023-01-31T21:23:37.709Z,10.63
2023-01-31T21:26:06.333Z,9.68
2023-01-31T21:28:33.471Z,10.05
2023-01-31T21:31:02.166Z,8.98
2023-01-31T21:33:29.327Z,8.97
2023-01-31T21:35:58.353Z,8.40
2023-01-31T21:38:25.694Z,9.00
2023-01-31T21:41:15.349Z,8.45
2023-01-31T21:46:09.970Z,7.35
2023-01-31T21:48:37.297Z,8.02
2023-01-31T21:51:06.332Z,8.98
2023-01-31T21:53:33.943Z,34.03
2023-01-31T21:56:09.055Z,34.45
2023-01-31T21:58:37.104Z,30.35
2023-01-31T22:01:08.137Z,26.55
2023-01-31T22:03:36.637Z,22.45
2023-01-31T22:06:05.800Z,20.77
2023-01-31T22:08:32.832Z,18.88
2023-01-31T22:11:04.855Z,17.20
2023-01-31T22:13:32.364Z,15.43
2023-01-31T22:16:11.230Z,14.45
2023-01-31T22:18:38.940Z,13.32
2023-01-31T22:21:07.483Z,13.65
2023-01-31T22:23:35.969Z,12.43
2023-01-31T22:26:11.495Z,12.18
2023-01-31T22:28:39.331Z,11.90
2023-01-31T22:31:07.823Z,11.40
2023-01-31T22:33:36.957Z,10.48
2023-01-31T22:36:05.099Z,10.15
2023-01-31T22:41:01.310Z,9.20
2023-01-31T22:43:28.314Z,10.07
2023-01-31T22:45:57.040Z,31.95
2023-01-31T22:48:25.386Z,37.75
2023-01-31T22:51:03.209Z,32.55
2023-01-31T22:53:32.856Z,27.15
2023-01-31T22:56:05.536Z,23.52
2023-01-31T22:58:32.699Z,21.58
2023-01-31T23:00:59.744Z,18.88
2023-01-31T23:03:26.905Z,18.88
2023-01-31T23:05:53.730Z,16.30
2023-01-31T23:08:20.618Z,15.77
2023-01-31T23:10:47.518Z,13.98
2023-01-31T23:13:14.331Z,14.88
2023-01-31T23:15:41.279Z,13.45
2023-01-31T23:18:08.410Z,13.02
2023-01-31T23:20:35.426Z,12.63
2023-01-31T23:23:02.479Z,12.55
2023-01-31T23:25:30.090Z,11.57
2023-01-31T23:27:57.469Z,10.85
2023-01-31T23:30:24.871Z,10.55
2023-01-31T23:32:52.340Z,10.57
2023-01-31T23:35:19.274Z,11.15
2023-01-31T23:37:46.279Z,10.43
2023-01-31T23:40:13.248Z,9.63
2023-01-31T23:42:40.045Z,10.00
2023-01-31T23:45:07.461Z,10.18
2023-01-31T23:47:34.343Z,9.15
2023-01-31T23:50:01.186Z,9.27
2023-01-31T23:52:28.195Z,9.48
2023-01-31T23:54:55.016Z,8.80
2023-01-31T23:57:21.895Z,24.00
2023-01-31T23:59:48.751Z,30.73
